Time;durP1;ratioP1;P1;durP2;ratioP2;P2;SDS_P1;SDS_P2;PMS_P1;PMS_P2;Temp;Humidity;BMP_temperature;BMP_pressure;BME280_temperature;BME280_humidity;BME280_pressure;Samples;Min_cycle;Max_cycle;Signal;HPM_P1;HPM_P2
2021/11/06 00:00:20;;;;;;;;;;;;;;;;;;5092137;28;19974;-68
2021/11/06 00:02:47;;;;;;;;;;;;;;;;;;5090133;28;19978;-66
2021/11/06 00:05:13;;;;;;;;;;;;;;;;;;5091578;28;20291;-68
2021/11/06 00:07:40;;;;;;;;;;;;;;;;;;5092093;28;19938;-68
2021/11/06 00:10:07;;;;;;;;;;;;;;;;;;5088446;28;20014;-67
2021/11/06 00:12:34;;;;;;;;;;;;;;;;;;5091936;28;19924;-66
2021/11/06 00:15:01;;;;;;;;;;;;;;;;;;5092707;28;20011;-65
2021/11/06 00:17:28;;;;;;;;;;;;;;;;;;5099830;28;20314;-66
2021/11/06 00:19:55;;;;;;;;;;;;;;;;;;5092017;28;19924;-66
2021/11/06 00:22:22;;;;;;;;;;;;;;;;;;5091373;28;19927;-67
2021/11/06 00:24:49;;;;;;;;;;;;;;;;;;5091784;28;20407;-66
2021/11/06 00:27:16;;;;;;;;;;;;;;;;;;5090165;28;20373;-68
2021/11/06 00:29:43;;;;;;;;;;;;;;;;;;5087381;28;19930;-68
2021/11/06 00:32:10;;;;;;;;;;;;;;;;;;5091846;28;20021;-66
2021/11/06 00:34:37;;;;;;;;;;;;;;;;;;5092025;28;19924;-66
2021/11/06 00:37:04;;;;;;;;;;;;;;;;;;5098332;28;20265;-66
2021/11/06 00:39:31;;;;;;;;;;;;;;;;;;5099462;28;20460;-68
2021/11/06 00:41:58;;;;;;;;;;;;;;;;;;5101741;28;20384;-66
2021/11/06 00:44:25;;;;;;;;;;;;;;;;;;5088099;28;19946;-66
2021/11/06 00:46:52;;;;;;;;;;;;;;;;;;5092694;28;19924;-66
2021/11/06 00:49:19;;;;;;;;;;;;;;;;;;5091739;28;19932;-68
2021/11/06 00:51:45;;;;;;;;;;;;;;;;;;5089521;28;19924;-66
2021/11/06 00:54:12;;;;;;;;;;;;;;;;;;5098198;28;19931;-66
2021/11/06 00:56:39;;;;;;;;;;;;;;;;;;5086391;28;19925;-66
2021/11/06 00:59:06;;;;;;;;;;;;;;;;;;5090704;28;19946;-67
2021/11/06 01:01:33;;;;;;;;;;;;;;;;;;5089618;28;19925;-66
2021/11/06 01:04:01;;;;;;;;;;;;;;;;;;5093326;28;19956;-65
2021/11/06 01:06:28;;;;;;;;;;;;;;;;;;5088954;28;19985;-66
2021/11/06 01:08:55;;;;;;;;;;;;;;;;;;5083158;28;20308;-67
2021/11/06 01:11:22;;;;;;;;;;;;;;;;;;5096323;28;19924;-65
2021/11/06 01:13:49;;;;;;;;;;;;;;;;;;5096509;28;19930;-65
2021/11/06 01:16:16;;;;;;;;;;;;;;;;;;5093475;28;19928;-66
2021/11/06 01:18:43;;;;;;;;;;;;;;;;;;5087645;28;19932;-66
2021/11/06 01:21:10;;;;;;;;;;;;;;;;;;5093915;28;19948;-66
2021/11/06 01:23:37;;;;;;;;;;;;;;;;;;5094738;28;19930;-66
2021/11/06 01:26:04;;;;;;;;;;;;;;;;;;5089975;28;19924;-65
2021/11/06 01:28:31;;;;;;;;;;;;;;;;;;5097558;28;19924;-65
2021/11/06 01:30:58;;;;;;;;;;;;;;;;;;5094188;28;19932;-66
2021/11/06 01:33:25;;;;;;;;;;;;;;;;;;5095488;28;19924;-65
2021/11/06 01:35:52;;;;;;;;;;;;;;;;;;5089491;28;20301;-66
2021/11/06 01:38:19;;;;;;;;;;;;;;;;;;5094849;28;19954;-64
2021/11/06 01:40:46;;;;;;;;;;;;;;;;;;5094607;28;19932;-65
2021/11/06 01:43:13;;;;;;;;;;;;;;;;;;5094842;28;19928;-66
2021/11/06 01:45:40;;;;;;;;;;;;;;;;;;5094967;28;20518;-65
2021/11/06 01:48:07;;;;;;;;;;;;;;;;;;5093687;28;19924;-66
2021/11/06 01:50:34;;;;;;;;;;;;;;;;;;5091537;28;19924;-65
2021/11/06 01:53:01;;;;;;;;;;;;;;;;;;5097234;28;19924;-65
2021/11/06 01:55:28;;;;;;;;;;;;;;;;;;5093650;28;19924;-66
2021/11/06 01:57:55;;;;;;;;;;;;;;;;;;5094826;28;19924;-66
2021/11/06 02:00:22;;;;;;;;;;;;;;;;;;5090360;28;19977;-65
2021/11/06 02:02:49;;;;;;;;;;;;;;;;;;5099264;28;19940;-65
2021/11/06 02:05:16;;;;;;;;;;;;;;;;;;5093643;28;19924;-66
2021/11/06 02:07:43;;;;;;;;;;;;;;;;;;5096183;28;19924;-66
2021/11/06 02:10:10;;;;;;;;;;;;;;;;;;5097143;28;20284;-66
2021/11/06 02:12:37;;;;;;;;;;;;;;;;;;5091526;28;19924;-66
2021/11/06 02:15:04;;;;;;;;;;;;;;;;;;5094398;28;19931;-63
2021/11/06 02:17:31;;;;;;;;;;;;;;;;;;5097487;28;19950;-65
2021/11/06 02:19:58;;;;;;;;;;;;;;;;;;5094784;28;20307;-65
2021/11/06 02:22:25;;;;;;;;;;;;;;;;;;5092969;28;19931;-66
2021/11/06 02:24:53;;;;;;;;;;;;;;;;;;5098936;28;19931;-65
2021/11/06 02:27:20;;;;;;;;;;;;;;;;;;5098422;28;19928;-66
2021/11/06 02:29:47;;;;;;;;;;;;;;;;;;5090323;28;19924;-65
2021/11/06 02:32:14;;;;;;;;;;;;;;;;;;5089244;28;19928;-66
2021/11/06 02:34:41;;;;;;;;;;;;;;;;;;5091637;28;20411;-68
2021/11/06 02:37:08;;;;;;;;;;;;;;;;;;5094581;28;19932;-68
2021/11/06 02:39:35;;;;;;;;;;;;;;;;;;5091585;28;19946;-67
2021/11/06 02:42:03;;;;;;;;;;;;;;;;;;5099662;28;19930;-67
2021/11/06 02:44:30;;;;;;;;;;;;;;;;;;5093279;28;19927;-67
2021/11/06 02:46:57;;;;;;;;;;;;;;;;;;5090562;28;19924;-67
2021/11/06 02:49:24;;;;;;;;;;;;;;;;;;5093830;28;19998;-67
2021/11/06 02:51:51;;;;;;;;;;;;;;;;;;5094004;28;20380;-70
2021/11/06 02:54:18;;;;;;;;;;;;;;;;;;5093312;28;19924;-65
2021/11/06 02:56:45;;;;;;;;;;;;;;;;;;5096194;28;19930;-65
2021/11/06 02:59:12;;;;;;;;;;;;;;;;;;5099705;28;20419;-66
2021/11/06 03:01:39;;;;;;;;;;;;;;;;;;5094905;28;20299;-65
2021/11/06 03:04:06;;;;;;;;;;;;;;;;;;5099429;28;19923;-66
2021/11/06 03:06:34;;;;;;;;;;;;;;;;;;5100810;28;20027;-65
2021/11/06 03:09:01;;;;;;;;;;;;;;;;;;5097915;28;20014;-67
2021/11/06 03:11:28;;;;;;;;;;;;;;;;;;5099987;28;19931;-64
2021/11/06 03:13:55;;;;;;;;;;;;;;;;;;5093314;28;20365;-66
2021/11/06 03:16:22;;;;;;;;;;;;;;;;;;5094744;28;19928;-64
2021/11/06 03:18:49;;;;;;;;;;;;;;;;;;5088342;28;19930;-67
2021/11/06 03:21:16;;;;;;;;;;;;;;;;;;5096548;28;19924;-65
2021/11/06 03:23:42;;;;;;;;;;;;;;;;;;5095301;28;19924;-66
2021/11/06 03:26:09;;;;;;;;;;;;;;;;;;5096306;28;20291;-66
2021/11/06 03:28:36;;;;;;;;;;;;;;;;;;5094559;28;19925;-66
2021/11/06 03:31:03;;;;;;;;;;;;;;;;;;5092018;28;19931;-67
2021/11/06 03:33:30;;;;;;;;;;;;;;;;;;5092865;28;19934;-65
2021/11/06 03:35:57;;;;;;;;;;;;;;;;;;5097576;28;20586;-66
2021/11/06 03:38:24;;;;;;;;;;;;;;;;;;5091283;28;19950;-66
2021/11/06 03:40:51;;;;;;;;;;;;;;;;;;5091190;28;19931;-67
2021/11/06 03:43:18;;;;;;;;;;;;;;;;;;5091399;28;19932;-67
2021/11/06 03:45:45;;;;;;;;;;;;;;;;;;5093016;28;19924;-67
2021/11/06 03:48:12;;;;;;;;;;;;;;;;;;5088372;28;19924;-67
2021/11/06 03:50:39;;;;;;;;;;;;;;;;;;5089074;28;20015;-67
2021/11/06 03:53:06;;;;;;;;;;;;;;;;;;5088396;28;20384;-67
2021/11/06 03:55:33;;;;;;;;;;;;;;;;;;5088744;28;19925;-66
2021/11/06 03:58:00;;;;;;;;;;;;;;;;;;5094871;28;20019;-66
2021/11/06 04:00:27;;;;;;;;;;;;;;;;;;5093228;28;19930;-67
2021/11/06 04:02:54;;;;;;;;;;;;;;;;;;5090779;28;19959;-67
2021/11/06 04:05:21;;;;;;;;;;;;;;;;;;5092218;28;19934;-67
2021/11/06 04:07:48;;;;;;;;;;;;;;;;;;5093030;28;19931;-67
2021/11/06 04:10:15;;;;;;;;;;;;;;;;;;5094958;28;19924;-66
2021/11/06 04:12:42;;;;;;;;;;;;;;;;;;5092909;28;19930;-65
2021/11/06 04:15:09;;;;;;;;;;;;;;;;;;5095658;28;19924;-66
2021/11/06 04:17:36;;;;;;;;;;;;;;;;;;5085388;28;20384;-66
2021/11/06 04:20:03;;;;;;;;;;;;;;;;;;5087455;28;20007;-65
2021/11/06 04:22:30;;;;;;;;;;;;;;;;;;5096686;28;20392;-65
2021/11/06 04:24:57;;;;;;;;;;;;;;;;;;5101127;28;19923;-65
2021/11/06 04:27:24;;;;;;;;;;;;;;;;;;5089176;28;19950;-65
2021/11/06 04:29:51;;;;;;;;;;;;;;;;;;5094317;28;19931;-66
2021/11/06 04:32:18;;;;;;;;;;;;;;;;;;5094850;28;19924;-66
2021/11/06 04:34:45;;;;;;;;;;;;;;;;;;5093196;28;19928;-66
2021/11/06 04:37:14;;;;;;;;;;;;;;;;;;5093717;28;20394;-66
2021/11/06 04:39:41;;;;;;;;;;;;;;;;;;5087661;28;19924;-65
2021/11/06 04:42:08;;;;;;;;;;;;;;;;;;5094624;28;19931;-66
2021/11/06 04:44:35;;;;;;;;;;;;;;;;;;5089233;28;19924;-66
2021/11/06 04:47:02;;;;;;;;;;;;;;;;;;5090932;28;19931;-65
2021/11/06 04:49:29;;;;;;;;;;;;;;;;;;5088803;28;19928;-66
2021/11/06 04:51:56;;;;;;;;;;;;;;;;;;5090512;28;19924;-67
2021/11/06 04:54:23;;;;;;;;;;;;;;;;;;5093069;28;19940;-67
2021/11/06 04:56:50;;;;;;;;;;;;;;;;;;5097298;28;19924;-67
2021/11/06 04:59:17;;;;;;;;;;;;;;;;;;5092020;28;19985;-68
2021/11/06 05:01:44;;;;;;;;;;;;;;;;;;5092097;28;19924;-67
2021/11/06 05:04:11;;;;;;;;;;;;;;;;;;5094031;28;19928;-68
2021/11/06 05:06:38;;;;;;;;;;;;;;;;;;5093428;28;20018;-67
2021/11/06 05:09:05;;;;;;;;;;;;;;;;;;5087518;28;19935;-66
2021/11/06 05:11:32;;;;;;;;;;;;;;;;;;5087854;28;19924;-67
2021/11/06 05:13:59;;;;;;;;;;;;;;;;;;5088117;28;19924;-67
2021/11/06 05:16:26;;;;;;;;;;;;;;;;;;5087734;28;20437;-67
2021/11/06 05:18:55;;;;;;;;;;;;;;;;;;5088392;28;20305;-67
2021/11/06 05:21:22;;;;;;;;;;;;;;;;;;5086429;28;20538;-67
2021/11/06 05:23:49;;;;;;;;;;;;;;;;;;5090668;28;20037;-66
2021/11/06 05:26:16;;;;;;;;;;;;;;;;;;5088747;28;19931;-66
2021/11/06 05:28:43;;;;;;;;;;;;;;;;;;5090930;28;20331;-65
2021/11/06 05:31:10;;;;;;;;;;;;;;;;;;5084938;28;20015;-66
2021/11/06 05:33:37;;;;;;;;;;;;;;;;;;5090599;28;19930;-66
2021/11/06 05:36:04;;;;;;;;;;;;;;;;;;5090460;28;19924;-66
2021/11/06 05:38:31;;;;;;;;;;;;;;;;;;5090015;28;19943;-65
2021/11/06 05:40:58;;;;;;;;;;;;;;;;;;5091376;28;19931;-66
2021/11/06 05:43:24;;;;;;;;;;;;;;;;;;5090475;28;19972;-64
2021/11/06 05:45:52;;;;;;;;;;;;;;;;;;5090579;28;20300;-67
2021/11/06 05:48:19;;;;;;;;;;;;;;;;;;5091360;28;19924;-66
2021/11/06 05:50:46;;;;;;;;;;;;;;;;;;5090977;28;19924;-67
2021/11/06 05:53:13;;;;;;;;;;;;;;;;;;5091438;28;19928;-66
2021/11/06 05:55:40;;;;;;;;;;;;;;;;;;5089884;28;20300;-66
2021/11/06 05:58:08;;;;;;;;;;;;;;;;;;5089484;28;20270;-65
2021/11/06 06:00:35;;;;;;;;;;;;;;;;;;5090176;28;19954;-65
2021/11/06 06:03:02;;;;;;;;;;;;;;;;;;5086299;28;21431;-66
2021/11/06 06:05:29;;;;;;;;;;;;;;;;;;5086033;28;19975;-66
2021/11/06 06:07:56;;;;;;;;;;;;;;;;;;5087962;28;19924;-65
2021/11/06 06:10:23;;;;;;;;;;;;;;;;;;5090156;28;20451;-66
2021/11/06 06:12:52;;;;;;;;;;;;;;;;;;5086999;28;19924;-65
2021/11/06 06:15:19;;;;;;;;;;;;;;;;;;5082202;28;19925;-66
2021/11/06 06:17:47;;;;;;;;;;;;;;;;;;5088450;28;19971;-66
2021/11/06 06:20:13;;;;;;;;;;;;;;;;;;5091826;28;20023;-66
2021/11/06 06:22:41;;;;;;;;;;;;;;;;;;5092837;28;20529;-66
2021/11/06 06:25:07;;;;;;;;;;;;;;;;;;5092111;28;19928;-66
2021/11/06 06:27:34;;;;;;;;;;;;;;;;;;5102556;28;19955;-67
2021/11/06 06:30:01;;;;;;;;;;;;;;;;;;5099011;28;20008;-66
2021/11/06 06:32:28;;;;;;;;;;;;;;;;;;5102941;28;19924;-66
2021/11/06 06:34:55;;;;;;;;;;;;;;;;;;5094516;28;20030;-67
2021/11/06 06:37:24;;;;;;;;;;;;;;;;;;5098757;28;19928;-65
2021/11/06 06:39:51;;;;;;;;;;;;;;;;;;5091728;28;20358;-65
2021/11/06 06:42:18;;;;;;;;;;;;;;;;;;5095800;28;19924;-67
2021/11/06 06:44:45;;;;;;;;;;;;;;;;;;5092960;28;19928;-66
2021/11/06 06:47:13;;;;;;;;;;;;;;;;;;5095528;28;19938;-66
2021/11/06 06:49:40;;;;;;;;;;;;;;;;;;5094854;28;20390;-66
2021/11/06 06:52:07;;;;;;;;;;;;;;;;;;5094731;28;19924;-67
2021/11/06 06:54:34;;;;;;;;;;;;;;;;;;5096531;28;19928;-66
2021/11/06 06:57:01;;;;;;;;;;;;;;;;;;5100198;28;19924;-66
2021/11/06 06:59:32;;;;;;;;;;;;;;;;;;5088726;28;19924;-67
2021/11/06 07:01:59;;;;;;;;;;;;;;;;;;5094981;28;19969;-67
2021/11/06 07:04:26;;;;;;;;;;;;;;;;;;5097726;28;20037;-67
2021/11/06 07:06:53;;;;;;;;;;;;;;;;;;5096071;28;19939;-68
2021/11/06 07:09:20;;;;;;;;;;;;;;;;;;5091335;28;19924;-67
2021/11/06 07:11:47;;;;;;;;;;;;;;;;;;5095165;28;19931;-68
2021/11/06 07:14:15;;;;;;;;;;;;;;;;;;5104903;28;20388;-67
2021/11/06 07:16:42;;;;;;;;;;;;;;;;;;5088765;28;19935;-67
2021/11/06 07:19:11;;;;;;;;;;;;;;;;;;5092213;28;20034;-67
2021/11/06 07:21:38;;;;;;;;;;;;;;;;;;5100526;28;19925;-67
2021/11/06 07:24:06;;;;;;;;;;;14.30;99.90;;;;;;5092928;28;19924;-67
2021/11/06 07:26:33;;;;;;;;;;;14.90;99.90;;;;;;5100463;28;19928;-67
2021/11/06 07:28:59;;;;;;;;;;;15.80;99.90;;;;;;5092527;28;19931;-66
2021/11/06 07:31:26;;;;;;;;;;;;;;;;;;5091856;28;19924;-67
2021/11/06 07:33:54;;;;;;;;;;;17.10;99.90;;;;;;5101006;28;19934;-67
2021/11/06 07:36:21;;;;;;;;;;;17.60;99.90;;;;;;5095203;28;19963;-67
2021/11/06 07:38:48;;;;;;;;;;;18.50;99.90;;;;;;5090168;28;19950;-67
2021/11/06 07:41:16;;;;;;;;;;;19.10;99.90;;;;;;5094121;28;19931;-67
2021/11/06 07:43:43;;;;;;;;;;;20.10;98.60;;;;;;5092593;28;19930;-67
2021/11/06 07:46:10;;;;;;;;;;;;;;;;;;5095013;28;19996;-67
2021/11/06 07:48:37;;;;;;;;;;;20.40;95.90;;;;;;5090375;28;19967;-67
2021/11/06 07:51:04;;;;;;;;;;;22.60;91.50;;;;;;5098155;28;20419;-67
2021/11/06 07:53:30;;;;;;;;;;;22.20;88.00;;;;;;5104734;28;19924;-67
2021/11/06 07:55:57;;;;;;;;;;;22.50;88.40;;;;;;5095857;28;20315;-67
2021/11/06 07:58:25;;;;;;;;;;;22.50;85.70;;;;;;5093477;28;20502;-66
2021/11/06 08:00:52;;;;;;;;;;;22.30;85.90;;;;;;5094195;28;20614;-66
2021/11/06 08:03:18;;;;;;;;;;;23.40;85.60;;;;;;5093095;28;20010;-66
2021/11/06 08:05:45;;;;;;;;;;;24.00;79.40;;;;;;5093508;28;19924;-67
2021/11/06 08:08:12;;;;;;;;;;;24.30;77.70;;;;;;5095295;28;19928;-67
2021/11/06 08:10:39;;;;;;;;;;;24.20;77.90;;;;;;5096611;28;19930;-67
2021/11/06 08:13:07;;;;;;;;;;;;;;;;;;5096960;28;19924;-67
2021/11/06 08:15:34;;;;;;;;;;;;;;;;;;5102785;28;19931;-66
2021/11/06 08:18:01;;;;;;;;;;;;;;;;;;5096517;28;19958;-67
2021/11/06 08:20:28;;;;;;;;;;;;;;;;;;5095720;28;19924;-66
2021/11/06 08:22:54;;;;;;;;;;;;;;;;;;5092318;28;19955;-66
2021/11/06 08:25:22;;;;;;;;;;;;;;;;;;5099487;28;20307;-67
2021/11/06 08:27:49;;;;;;;;;;;;;;;;;;5098586;28;19928;-67
2021/11/06 08:30:17;;;;;;;;;;;;;;;;;;5099809;28;19931;-67
2021/11/06 08:32:44;;;;;;;;;;;;;;;;;;5087736;28;20330;-67
2021/11/06 08:35:11;;;;;;;;;;;;;;;;;;5099563;28;19977;-67
2021/11/06 08:37:38;;;;;;;;;;;;;;;;;;5099513;28;19924;-67
2021/11/06 08:40:05;;;;;;;;;;;;;;;;;;5103392;28;19928;-67
2021/11/06 08:42:32;;;;;;;;;;;;;;;;;;5093673;28;19928;-67
2021/11/06 08:44:59;;;;;;;;;;;;;;;;;;5095748;28;19924;-67
2021/11/06 08:47:26;;;;;;;;;;;;;;;;;;5094260;28;20285;-67
2021/11/06 08:49:53;;;;;;;;;;;;;;;;;;5099029;28;19924;-67
2021/11/06 08:52:20;;;;;;;;;;;;;;;;;;5094205;28;19924;-67
2021/11/06 08:54:48;;;;;;;;;;;;;;;;;;5096105;28;19928;-67
2021/11/06 08:57:14;;;;;;;;;;;;;;;;;;5090859;28;20257;-67
2021/11/06 08:59:41;;;;;;;;;;;;;;;;;;5091655;28;19930;-67
2021/11/06 09:02:10;;;;;;;;;;;;;;;;;;5091606;28;20341;-67
2021/11/06 09:04:36;;;;;;;;;;;;;;;;;;5091545;28;19934;-67
2021/11/06 09:07:03;;;;;;;;;;;;;;;;;;5086910;28;19931;-67
2021/11/06 09:09:30;;;;;;;;;;;;;;;;;;5094678;28;20015;-67
2021/11/06 09:11:58;;;;;;;;;;;;;;;;;;5098978;28;19928;-67
2021/11/06 09:14:24;;;;;;;;;;;;;;;;;;5106404;28;19930;-67
2021/11/06 09:16:52;;;;;;;;;;;;;;;;;;5090959;28;20744;-66
2021/11/06 09:19:18;;;;;;;;;;;;;;;;;;5093697;28;19928;-66
2021/11/06 09:21:46;;;;;;;;;;;;;;;;;;5089140;28;19939;-67
2021/11/06 09:24:13;;;;;;;;;;;;;;;;;;5097725;28;19924;-67
2021/11/06 09:26:40;;;;;;;;;;;;;;;;;;5095935;28;20299;-68
2021/11/06 09:29:07;;;;;;;;;;;;;;;;;;5092261;28;20389;-68
2021/11/06 09:31:34;;;;;;;;;;;;;;;;;;5091825;28;19931;-68
2021/11/06 09:34:01;;;;;;;;;;;;;;;;;;5096554;28;20011;-66
2021/11/06 09:36:28;;;;;;;;;;;;;;;;;;5085528;28;19924;-66
2021/11/06 09:38:56;;;;;;;;;;;;;;;;;;5091512;28;20011;-67
2021/11/06 09:41:23;;;;;;;;;;;;;;;;;;5091075;28;19924;-67
2021/11/06 09:43:51;;;;;;;;;;;;;;;;;;5082785;22;19925;-59
2021/11/06 09:46:18;;;;;;;;;;;;;;;;;;5018328;28;19930;-60
2021/11/06 09:48:45;;;;;;;;;;;;;;;;;;5021024;28;20012;-60
2021/11/06 09:51:12;;;;;;;;;;;;;;;;;;5023020;28;19974;-58
2021/11/06 09:53:40;;;;;;;;;;;;;;;;;;5017572;28;19929;-60
2021/11/06 09:56:08;;;;;;;;;;;30.50;51.00;;;;;;5039579;28;19925;-60
2021/11/06 09:58:35;;;;;;;;;;;32.70;48.20;;;;;;5022854;28;20355;-60
2021/11/06 10:01:02;;;;;;;;;;;;;;;;;;5015699;28;20012;-60
2021/11/06 10:03:29;;;;;;;;;;;;;;;;;;5020871;28;20423;-60
2021/11/06 10:05:56;;;;;;;;;;;;;;;;;;5014565;28;19932;-59
2021/11/06 10:08:23;;;;;;;;;;;;;;;;;;5019504;28;19925;-59
2021/11/06 10:10:50;;;;;;;;;;;;;;;;;;5019122;28;19951;-59
2021/11/06 10:13:17;;;;;;;;;;;;;;;;;;5004237;28;19926;-59
2021/11/06 10:15:44;;;;;;;;;;;;;;;;;;5009894;28;19932;-60
2021/11/06 10:18:11;;;;;;;;;;;;;;;;;;5012630;28;20575;-60
2021/11/06 10:20:39;;;;;;;;;;;;;;;;;;5005119;28;19929;-60
2021/11/06 10:23:07;;;;;;;;;;;;;;;;;;5025098;28;19977;-59
2021/11/06 10:25:34;;;;;;;;;;;;;;;;;;5020520;28;20397;-60
2021/11/06 10:28:01;;;;;;;;;;;;;;;;;;5019223;28;19967;-58
2021/11/06 10:30:28;;;;;;;;;;;;;;;;;;5019598;28;19926;-59
2021/11/06 10:32:55;;;;;;;;;;;;;;;;;;5010261;28;19929;-59
2021/11/06 10:35:23;;;;;;;;;;;;;;;;;;5011227;28;19973;-59
2021/11/06 10:37:50;;;;;;;;;;;;;;;;;;5043983;28;19929;-58
2021/11/06 10:40:19;;;;;;;;;;;;;;;;;;5010999;28;19957;-60
2021/11/06 10:42:46;;;;;;;;;;;;;;;;;;5016036;28;20021;-60
2021/11/06 10:45:15;;;;;;;;;;;31.20;42.80;;;;;;5018692;28;19926;-60
2021/11/06 10:47:53;;;;;;;;;;;30.70;45.20;;;;;;5030862;28;20020;-60
2021/11/06 10:50:34;;;;;;;;;;;31.60;44.80;;;;;;5011607;28;20378;-59
2021/11/06 10:53:01;;;;;;;;;;;31.60;44.80;;;;;;5020475;28;20020;-58
2021/11/06 10:55:32;;;;;;;;;;;32.20;44.50;;;;;;5013867;28;19951;-60
2021/11/06 10:57:59;;;;;;;;;;;32.80;43.50;;;;;;5014834;28;19935;-60
2021/11/06 11:00:27;;;;;;;;;;;31.30;44.50;;;;;;5008808;28;20016;-64
2021/11/06 11:02:54;;;;;;;;;;;31.60;44.70;;;;;;5006753;28;19979;-63
2021/11/06 11:05:34;;;;;;;;;;;31.10;45.00;;;;;;5011093;28;19976;-62
2021/11/06 11:08:01;;;;;;;;;;;31.70;45.20;;;;;;5007043;28;19926;-60
2021/11/06 11:10:28;;;;;;;;;;;32.80;44.10;;;;;;5011212;28;19965;-60
2021/11/06 11:13:06;;;;;;;;;;;32.20;43.20;;;;;;5042352;28;19929;-60
2021/11/06 11:15:35;;;;;;;;;;;31.50;45.10;;;;;;5007148;28;20189;-59
2021/11/06 11:18:02;;;;;;;;;;;31.30;44.40;;;;;;5018266;28;19971;-57
2021/11/06 11:20:30;;;;;;;;;;;31.60;44.20;;;;;;5038011;28;20282;-59
2021/11/06 11:23:10;;;;;;;;;;;30.40;45.40;;;;;;5014626;28;19925;-59
2021/11/06 11:25:37;;;;;;;;;;;29.60;46.60;;;;;;5023937;28;20408;-58
2021/11/06 11:28:04;;;;;;;;;;;30.10;48.30;;;;;;5016400;28;19933;-59
2021/11/06 11:30:31;;;;;;;;;;;;;;;;;;5012522;28;20312;-59
2021/11/06 11:32:58;;;;;;;;;;;;;;;;;;5015300;28;19933;-57
2021/11/06 11:35:26;;;;;;;;;;;30.60;46.80;;;;;;5013230;28;19932;-59
2021/11/06 11:37:54;;;;;;;;;;;29.90;46.10;;;;;;5020229;28;19933;-59
2021/11/06 11:40:21;;;;;;;;;;;29.90;46.50;;;;;;5012552;28;19925;-57
2021/11/06 11:42:52;;;;;;;;;;;30.30;47.00;;;;;;5010057;28;20296;-58
2021/11/06 11:45:35;;;;;;;;;;;30.00;46.80;;;;;;5002025;28;19926;-58
2021/11/06 11:48:04;;;;;;;;;;;28.40;47.50;;;;;;5017640;28;19929;-57
2021/11/06 11:50:35;;;;;;;;;;;27.70;48.60;;;;;;5010135;28;20400;-59
2021/11/06 11:53:02;;;;;;;;;;;27.80;50.10;;;;;;5002463;28;19926;-59
2021/11/06 11:55:31;;;;;;;;;;;29.10;48.00;;;;;;5013270;28;19987;-59
2021/11/06 11:58:05;;;;;;;;;;;27.70;49.30;;;;;;5018684;28;19932;-59
2021/11/06 12:00:40;;;;;;;;;;;26.80;49.70;;;;;;5023995;28;19929;-57
2021/11/06 12:03:07;;;;;;;;;;;26.20;51.80;;;;;;5008470;28;20338;-56
2021/11/06 12:05:39;;;;;;;;;;;26.50;52.20;;;;;;5010167;28;19934;-58
2021/11/06 12:08:27;;;;;;;;;;;25.40;53.00;;;;;;5011462;28;20397;-57
2021/11/06 12:10:57;;;;;;;;;;;24.50;55.30;;;;;;5017450;28;20007;-59
2021/11/06 12:13:34;;;;;;;;;;;23.90;57.40;;;;;;5007742;28;19925;-58
2021/11/06 12:16:02;;;;;;;;;;;22.50;58.90;;;;;;5047664;28;19925;-59
2021/11/06 12:18:54;;;;;;;;;;;21.60;61.30;;;;;;5006493;28;19925;-59
2021/11/06 12:21:22;;;;;;;;;;;;;;;;;;4990480;28;19926;-58
2021/11/06 12:23:51;;;;;;;;;;;22.90;59.30;;;;;;5022353;28;19925;-59
2021/11/06 12:26:18;;;;;;;;;;;24.80;55.70;;;;;;5050116;28;20407;-58
2021/11/06 12:28:45;;;;;;;;;;;24.90;53.20;;;;;;5009879;28;19932;-59
2021/11/06 12:31:25;;;;;;;;;;;25.50;52.80;;;;;;5053828;28;19929;-59
2021/11/06 12:33:54;;;;;;;;;;;25.20;53.60;;;;;;5014887;28;19970;-59
2021/11/06 12:36:22;;;;;;;;;;;25.10;53.50;;;;;;5022361;28;19926;-59
2021/11/06 12:38:50;;;;;;;;;;;23.50;54.10;;;;;;5010988;28;20366;-59
2021/11/06 12:41:25;;;;;;;;;;;23.00;57.60;;;;;;5004941;28;19955;-60
2021/11/06 12:43:52;;;;;;;;;;;22.40;60.60;;;;;;5011660;28;19933;-60
2021/11/06 12:46:23;;;;;;;;;;;22.40;59.80;;;;;;5013085;28;19932;-60
2021/11/06 12:48:50;;;;;;;;;;;;;;;;;;5012394;28;20155;-60
2021/11/06 12:51:17;;;;;;;;;;;;;;;;;;5006013;28;19926;-58
2021/11/06 12:53:44;;;;;;;;;;;;;;;;;;5014598;28;19926;-58
2021/11/06 12:56:11;;;;;;;;;;;;;;;;;;5019457;28;19943;-59
2021/11/06 12:58:38;;;;;;;;;;;;;;;;;;5042938;28;20016;-60
2021/11/06 13:01:05;;;;;;;;;;;;;;;;;;5007773;28;19938;-60
2021/11/06 13:03:32;;;;;;;;;;;;;;;;;;5008652;28;19925;-60
2021/11/06 13:05:59;;;;;;;;;;;;;;;;;;5008550;28;20028;-58
2021/11/06 13:08:26;;;;;;;;;;;;;;;;;;5032056;28;19924;-60
2021/11/06 13:10:53;;;;;;;;;;;;;;;;;;5011844;28;19929;-59
2021/11/06 13:13:26;;;;;;;;;;;;;;;;;;5009516;28;19932;-59
2021/11/06 13:15:53;;;;;;;;;;;;;;;;;;5021145;28;20016;-60
2021/11/06 13:18:20;;;;;;;;;;;;;;;;;;5009107;28;20305;-60
2021/11/06 13:20:47;;;;;;;;;;;;;;;;;;5007880;28;20005;-61
2021/11/06 13:23:14;;;;;;;;;;;;;;;;;;5002772;28;19925;-60
2021/11/06 13:25:41;;;;;;;;;;;;;;;;;;5011283;28;19929;-60
2021/11/06 13:28:08;;;;;;;;;;;;;;;;;;5003972;28;19929;-58
2021/11/06 13:30:36;;;;;;;;;;;;;;;;;;5016189;28;19926;-60
2021/11/06 13:33:03;;;;;;;;;;;;;;;;;;5025002;28;19925;-59
2021/11/06 13:35:31;;;;;;;;;;;;;;;;;;5084762;28;20405;-60
2021/11/06 13:37:58;;;;;;;;;;;;;;;;;;5023469;28;20355;-59
2021/11/06 13:40:25;;;;;;;;;;;;;;;;;;5013119;28;20293;-60
2021/11/06 13:42:52;;;;;;;;;;;;;;;;;;5007401;28;19925;-60
2021/11/06 13:45:19;;;;;;;;;;;;;;;;;;5014902;28;19951;-61
2021/11/06 13:47:48;;;;;;;;;;;;;;;;;;5015869;28;19925;-59
2021/11/06 13:50:15;;;;;;;;;;;;;;;;;;5013338;28;20020;-59
2021/11/06 13:52:42;;;;;;;;;;;;;;;;;;5008268;28;20003;-60
2021/11/06 13:55:09;;;;;;;;;;;;;;;;;;5005894;28;20349;-60
2021/11/06 13:57:36;;;;;;;;;;;;;;;;;;5010192;28;19925;-60
2021/11/06 14:00:03;;;;;;;;;;;;;;;;;;5009350;28;19931;-60
2021/11/06 14:02:30;;;;;;;;;;;;;;;;;;5007610;28;19948;-56
2021/11/06 14:04:57;;;;;;;;;;;;;;;;;;5009774;28;19932;-60
2021/11/06 14:07:24;;;;;;;;;;;;;;;;;;5015584;28;19926;-60
2021/11/06 14:09:51;;;;;;;;;;;;;;;;;;5053962;28;19969;-62
2021/11/06 14:12:18;;;;;;;;;;;;;;;;;;5020440;28;19933;-59
2021/11/06 14:14:45;;;;;;;;;;;;;;;;;;5011370;28;19933;-60
2021/11/06 14:17:12;;;;;;;;;;;;;;;;;;5001688;28;20032;-60
2021/11/06 14:19:39;;;;;;;;;;;;;;;;;;5002094;28;19986;-57
2021/11/06 14:22:09;;;;;;;;;;;;;;;;;;5013243;28;19980;-60
2021/11/06 14:24:38;;;;;;;;;;;;;;;;;;5002850;28;19926;-60
2021/11/06 14:27:05;;;;;;;;;;;;;;;;;;5002811;28;20017;-59
2021/11/06 14:29:32;;;;;;;;;;;;;;;;;;5009425;28;20024;-59
2021/11/06 14:32:00;;;;;;;;;;;;;;;;;;5007138;28;19925;-60
2021/11/06 14:34:27;;;;;;;;;;;;;;;;;;5001095;28;19926;-59
2021/11/06 14:36:54;;;;;;;;;;;;;;;;;;5005448;28;20032;-60
2021/11/06 14:39:21;;;;;;;;;;;;;;;;;;5003357;28;19940;-60
2021/11/06 14:41:54;;;;;;;;;;;;;;;;;;5013194;28;20286;-59
2021/11/06 14:44:21;;;;;;;;;;;;;;;;;;5006906;28;19989;-60
2021/11/06 14:46:48;;;;;;;;;;;;;;;;;;5002614;28;19972;-60
2021/11/06 14:49:15;;;;;;;;;;;;;;;;;;5005257;28;20275;-60
2021/11/06 14:51:42;;;;;;;;;;;;;;;;;;5004142;28;20028;-60
2021/11/06 14:54:09;;;;;;;;;;;;;;;;;;5000408;28;19930;-60
2021/11/06 14:56:38;;;;;;;;;;;;;;;;;;5003808;28;19933;-60
2021/11/06 14:59:06;;;;;;;;;;;;;;;;;;5001440;28;20394;-60
2021/11/06 15:01:33;;;;;;;;;;;;;;;;;;5001053;28;19926;-60
2021/11/06 15:04:00;;;;;;;;;;;;;;;;;;5001782;28;19933;-60
2021/11/06 15:06:27;;;;;;;;;;;;;;;;;;4999406;28;20294;-60
2021/11/06 15:08:54;;;;;;;;;;;;;;;;;;5008127;28;19930;-58
2021/11/06 15:11:21;;;;;;;;;;;;;;;;;;5006155;28;19933;-61
2021/11/06 15:13:51;;;;;;;;;;;;;;;;;;5005730;28;19926;-60
2021/11/06 15:16:18;;;;;;;;;;;;;;;;;;5004589;28;20359;-60
2021/11/06 15:18:45;;;;;;;;;;;;;;;;;;5003165;28;19929;-60
2021/11/06 15:21:14;;;;;;;;;;;;;;;;;;5003680;28;19929;-59
2021/11/06 15:23:41;;;;;;;;;;;;;;;;;;5003641;28;19930;-60
2021/11/06 15:26:08;;;;;;;;;;;;;;;;;;5003736;28;20337;-60
2021/11/06 15:28:37;;;;;;;;;;;;;;;;;;5006557;28;19940;-60
2021/11/06 15:31:04;;;;;;;;;;;;;;;;;;5002592;28;19935;-60
2021/11/06 15:33:31;;;;;;;;;;;;;;;;;;5006149;28;19990;-64
2021/11/06 15:35:58;;;;;;;;;;;;;;;;;;5003377;28;19926;-63
2021/11/06 15:38:25;;;;;;;;;;;;;;;;;;5009325;28;19969;-64
2021/11/06 15:40:52;;;;;;;;;;;;;;;;;;5003919;28;19979;-60
2021/11/06 15:43:19;;;;;;;;;;;;;;;;;;5008078;28;19974;-60
2021/11/06 15:45:46;;;;;;;;;;;;;;;;;;5020216;28;20016;-60
2021/11/06 15:48:13;;;;;;;;;;;;;;;;;;5015805;28;19984;-62
2021/11/06 15:50:40;;;;;;;;;;;;;;;;;;5018884;28;19925;-62
2021/11/06 15:53:09;;;;;;;;;;;;;;;;;;5013801;28;19957;-61
2021/11/06 15:55:39;;;;;;;;;;;;;;;;;;5011651;28;19926;-61
2021/11/06 15:58:06;;;;;;;;;;;;;;;;;;5006760;28;19971;-59
2021/11/06 16:00:33;;;;;;;;;;;;;;;;;;5005720;28;19936;-61
2021/11/06 16:03:00;;;;;;;;;;;;;;;;;;5005724;28;19932;-59
2021/11/06 16:05:28;;;;;;;;;;;;;;;;;;5011589;28;19968;-59
2021/11/06 16:07:55;;;;;;;;;;;;;;;;;;5008357;28;19933;-60
2021/11/06 16:10:22;;;;;;;;;;;;;;;;;;5009383;28;19929;-60
2021/11/06 16:12:49;;;;;;;;;;;;;;;;;;5011214;28;20436;-61
2021/11/06 16:15:17;;;;;;;;;;;;;;;;;;5009562;28;20070;-60
2021/11/06 16:17:48;;;;;;;;;;;;;;;;;;5005147;28;20020;-59